Time;durP1;ratioP1;P1;durP2;ratioP2;P2;SDS_P1;SDS_P2;PMS_P1;PMS_P2;Temp;Humidity;BMP_temperature;BMP_pressure;BME280_temperature;BME280_humidity;BME280_pressure;Samples;Min_cycle;Max_cycle;Signal;HPM_P1;HPM_P2
2023/12/09 00:01:53;;;;;;;76.25;18.35;;;;;;;;;;5089444;28;20233;-63
2023/12/09 00:04:20;;;;;;;70.85;18.35;;;;;;;;;;5102805;28;20510;-63
2023/12/09 00:06:48;;;;;;;89.22;19.90;;;;;;;;;;5083149;28;20062;-62
2023/12/09 00:09:18;;;;;;;86.18;21.10;;;;;;;;;;5107276;28;20039;-62
2023/12/09 00:11:46;;;;;;;67.82;18.08;;;;;;;;;;5102989;28;20545;-65
2023/12/09 00:14:13;;;;;;;65.85;17.98;;;;;;;;;;5106929;28;20079;-66
2023/12/09 00:16:41;;;;;;;80.95;19.50;;;;;;;;;;5106610;28;20058;-62
2023/12/09 00:19:09;;;;;;;77.20;19.20;;;;;;;;;;5102768;28;20522;-61
2023/12/09 00:21:36;;;;;;;79.10;17.95;;;;;;;;;;5102204;28;20043;-64
2023/12/09 00:24:03;;;;;;;55.80;17.05;;;;;;;;;;5106722;28;20064;-62
2023/12/09 00:26:32;;;;;;;69.80;17.83;;;;;;;;;;5099243;28;20048;-62
2023/12/09 00:29:00;;;;;;;66.22;17.73;;;;;;;;;;5106143;28;20122;-63
2023/12/09 00:31:27;;;;;;;65.70;17.30;;;;;;;;;;5104005;28;20490;-62
2023/12/09 00:33:54;;;;;;;66.70;18.70;;;;;;;;;;5104113;28;20058;-63
2023/12/09 00:36:22;;;;;;;67.20;19.67;;;;;;;;;;5100074;28;20052;-63
2023/12/09 00:38:49;;;;;;;65.55;18.33;;;;;;;;;;5102090;28;20102;-62
2023/12/09 00:41:16;;;;;;;64.20;18.25;;;;;;;;;;5093883;28;20063;-63
2023/12/09 00:43:45;;;;;;;62.22;17.15;;;;;;;;;;5108471;28;20051;-65
2023/12/09 00:46:12;;;;;;;62.28;18.40;;;;;;;;;;5106377;28;20047;-63
2023/12/09 00:48:39;;;;;;;62.42;17.13;;;;;;;;;;5108946;28;20130;-63
2023/12/09 00:51:07;;;;;;;64.95;17.90;;;;;;;;;;5104751;28;20047;-63
2023/12/09 00:53:34;;;;;;;61.70;16.23;;;;;;;;;;5089769;28;20430;-63
2023/12/09 00:56:01;;;;;;;55.30;16.15;;;;;;;;;;5101410;28;20047;-63
2023/12/09 00:58:29;;;;;;;60.85;15.63;;;;;;;;;;5109789;28;20515;-63
2023/12/09 01:00:58;;;;;;;65.30;16.42;;;;;;;;;;5105654;28;20407;-63
2023/12/09 01:03:25;;;;;;;51.65;15.65;;;;;;;;;;5111344;28;20457;-62
2023/12/09 01:05:52;;;;;;;73.57;17.88;;;;;;;;;;5104109;28;20048;-62
2023/12/09 01:08:19;;;;;;;60.88;15.55;;;;;;;;;;5100988;28;20483;-63
2023/12/09 01:10:46;;;;;;;66.00;15.60;;;;;;;;;;5110147;28;20039;-63
2023/12/09 01:13:14;;;;;;;58.00;15.93;;;;;;;;;;5106297;28;20073;-63
2023/12/09 01:15:41;;;;;;;67.97;15.23;;;;;;;;;;5103534;28;20040;-63
2023/12/09 01:18:09;;;;;;;55.60;15.25;;;;;;;;;;5109872;28;20052;-62
2023/12/09 01:20:37;;;;;;;46.85;14.45;;;;;;;;;;5101341;28;20262;-64
2023/12/09 01:23:04;;;;;;;56.03;14.98;;;;;;;;;;5105812;28;20510;-63
2023/12/09 01:25:31;;;;;;;46.90;14.27;;;;;;;;;;5108623;28;20084;-62
2023/12/09 01:27:58;;;;;;;54.53;14.80;;;;;;;;;;5102704;28;20040;-62
2023/12/09 01:30:26;;;;;;;51.13;14.85;;;;;;;;;;5099474;28;20055;-62
2023/12/09 01:32:53;;;;;;;46.58;14.55;;;;;;;;;;5101641;28;20463;-63
2023/12/09 01:35:21;;;;;;;47.60;13.88;;;;;;;;;;5111320;28;20060;-63
2023/12/09 01:37:49;;;;;;;54.50;14.70;;;;;;;;;;5105032;28;20410;-62
2023/12/09 01:40:16;;;;;;;47.97;14.00;;;;;;;;;;5110955;28;20039;-62
2023/12/09 01:42:44;;;;;;;47.17;13.85;;;;;;;;;;5102727;28;20036;-63
2023/12/09 01:45:11;;;;;;;52.03;13.95;;;;;;;;;;5105100;28;20483;-62
2023/12/09 01:47:39;;;;;;;56.13;14.07;;;;;;;;;;5082130;28;20127;-62
2023/12/09 01:50:07;;;;;;;55.88;15.23;;;;;;;;;;5107968;28;20050;-64
2023/12/09 01:52:36;;;;;;;45.50;12.88;;;;;;;;;;5082682;28;20150;-62
2023/12/09 01:55:03;;;;;;;52.28;13.48;;;;;;;;;;5110023;28;20058;-62
2023/12/09 01:57:30;;;;;;;56.42;16.40;;;;;;;;;;5102618;28;20058;-62
2023/12/09 01:59:57;;;;;;;50.65;13.45;;;;;;;;;;5108621;28;20043;-62
2023/12/09 02:02:25;;;;;;;58.90;13.43;;;;;;;;;;5107691;28;20048;-62
2023/12/09 02:04:53;;;;;;;62.78;13.55;;;;;;;;;;5107741;28;20044;-62
2023/12/09 02:07:20;;;;;;;56.10;11.75;;;;;;;;;;5109244;28;20406;-63
2023/12/09 02:09:49;;;;;;;57.22;14.65;;;;;;;;;;5105954;28;20044;-62
2023/12/09 02:12:19;;;;;;;60.75;13.07;;;;;;;;;;5082651;28;20048;-62
2023/12/09 02:14:50;;;;;;;58.60;14.55;;;;;;;;;;5106737;28;20047;-63
2023/12/09 02:17:20;;;;;;;51.38;12.77;;;;;;;;;;5086414;28;20048;-62
2023/12/09 02:19:48;;;;;;;59.33;12.80;;;;;;;;;;5098617;28;20498;-62
2023/12/09 02:22:15;;;;;;;46.00;12.27;;;;;;;;;;5109119;28;20043;-63
2023/12/09 02:24:44;;;;;;;54.80;13.65;;;;;;;;;;5106984;28;20065;-62
2023/12/09 02:27:12;;;;;;;51.75;13.45;;;;;;;;;;5107741;28;20040;-63
2023/12/09 02:29:43;;;;;;;47.05;13.60;;;;;;;;;;5107663;28;20135;-63
2023/12/09 02:32:11;;;;;;;58.42;14.60;;;;;;;;;;5108469;28;20062;-62
2023/12/09 02:34:39;;;;;;;56.17;14.18;;;;;;;;;;5089668;28;20052;-62
2023/12/09 02:37:07;;;;;;;62.95;13.10;;;;;;;;;;5108096;28;20048;-63
2023/12/09 02:39:34;;;;;;;49.90;13.85;;;;;;;;;;5103860;28;20039;-62
2023/12/09 02:42:03;;;;;;;45.45;13.65;;;;;;;;;;5105613;28;20063;-63
2023/12/09 02:44:30;;;;;;;53.53;12.68;;;;;;;;;;5109120;28;20050;-62
2023/12/09 02:46:58;;;;;;;49.70;13.52;;;;;;;;;;5101600;28;20088;-62
2023/12/09 02:49:25;;;;;;;55.08;13.23;;;;;;;;;;5103730;28;20044;-63
2023/12/09 02:51:52;;;;;;;41.67;11.88;;;;;;;;;;5108874;28;20047;-62
2023/12/09 02:54:20;;;;;;;52.85;12.60;;;;;;;;;;5108558;28;20044;-62
2023/12/09 02:56:47;;;;;;;47.03;11.63;;;;;;;;;;5090076;28;21433;-63
2023/12/09 02:59:15;;;;;;;50.70;12.35;;;;;;;;;;5109218;28;20052;-62
2023/12/09 03:01:43;;;;;;;36.55;11.05;;;;;;;;;;5093802;28;20047;-63
2023/12/09 03:04:10;;;;;;;55.33;12.30;;;;;;;;;;5103294;28;20050;-63
2023/12/09 03:06:38;;;;;;;52.92;11.57;;;;;;;;;;5106106;27;20142;-63
2023/12/09 03:09:05;;;;;;;42.78;10.45;;;;;;;;;;5101446;28;20398;-63
2023/12/09 03:11:32;;;;;;;41.35;10.93;;;;;;;;;;5096029;28;20048;-62
2023/12/09 03:13:59;;;;;;;45.65;10.18;;;;;;;;;;5096731;28;20048;-63
2023/12/09 03:16:28;;;;;;;41.75;10.27;;;;;;;;;;5096342;28;20402;-62
2023/12/09 03:18:55;;;;;;;35.75;10.35;;;;;;;;;;5096353;28;20044;-65
2023/12/09 03:21:23;;;;;;;47.95;11.40;;;;;;;;;;5101612;28;20049;-63
2023/12/09 03:23:50;;;;;;;35.58;9.43;;;;;;;;;;5105346;28;20063;-63
2023/12/09 03:26:17;;;;;;;37.83;10.13;;;;;;;;;;5101728;28;20411;-63
2023/12/09 03:28:45;;;;;;;40.75;11.35;;;;;;;;;;5100355;28;20048;-63
2023/12/09 03:31:13;;;;;;;41.70;11.45;;;;;;;;;;5105921;28;20055;-64
2023/12/09 03:33:42;;;;;;;54.25;12.45;;;;;;;;;;5104661;28;20043;-62
2023/12/09 03:36:09;;;;;;;47.60;12.15;;;;;;;;;;5108947;28;20044;-63
2023/12/09 03:38:37;;;;;;;44.05;11.57;;;;;;;;;;5087156;28;20056;-63
2023/12/09 03:41:05;;;;;;;56.50;11.73;;;;;;;;;;5098212;28;20054;-63
2023/12/09 03:43:32;;;;;;;46.10;12.85;;;;;;;;;;5101092;28;20048;-61
2023/12/09 03:46:00;;;;;;;52.70;12.25;;;;;;;;;;5081294;28;20091;-63
2023/12/09 03:48:27;;;;;;;46.22;13.23;;;;;;;;;;5105557;28;20040;-62
2023/12/09 03:50:56;;;;;;;46.17;12.27;;;;;;;;;;5108551;28;20048;-64
2023/12/09 03:53:23;;;;;;;51.88;12.20;;;;;;;;;;5095533;28;20619;-63
2023/12/09 03:55:51;;;;;;;51.80;14.20;;;;;;;;;;5101003;28;20066;-62
2023/12/09 03:58:20;;;;;;;51.80;12.00;;;;;;;;;;5098943;28;20460;-62
2023/12/09 04:00:47;;;;;;;44.08;11.52;;;;;;;;;;5098906;28;20158;-62
2023/12/09 04:03:15;;;;;;;44.53;12.25;;;;;;;;;;5103807;28;20083;-61
2023/12/09 04:05:42;;;;;;;50.63;11.98;;;;;;;;;;5102154;28;20477;-64
2023/12/09 04:08:11;;;;;;;46.03;12.98;;;;;;;;;;5108505;28;20047;-62
2023/12/09 04:10:38;;;;;;;44.80;11.27;;;;;;;;;;5106169;28;20507;-63
2023/12/09 04:13:05;;;;;;;57.95;13.38;;;;;;;;;;5100909;28;20048;-62
2023/12/09 04:15:32;;;;;;;49.45;11.75;;;;;;;;;;5101889;28;20052;-62
2023/12/09 04:18:00;;;;;;;43.30;11.48;;;;;;;;;;5107636;28;20398;-63
2023/12/09 04:20:27;;;;;;;43.55;10.70;;;;;;;;;;5080350;28;20052;-63
2023/12/09 04:22:54;;;;;;;36.63;10.75;;;;;;;;;;5100275;28;20054;-63
2023/12/09 04:25:24;;;;;;;45.47;10.35;;;;;;;;;;5102046;28;20044;-62
2023/12/09 04:27:51;;;;;;;33.33;9.82;;;;;;;;;;5107226;28;20058;-63
2023/12/09 04:30:19;;;;;;;49.47;12.18;;;;;;;;;;5107445;28;20535;-61
2023/12/09 04:32:46;;;;;;;43.15;11.00;;;;;;;;;;5109870;28;20055;-63
2023/12/09 04:35:13;;;;;;;37.15;11.75;;;;;;;;;;5112701;28;20482;-64
2023/12/09 04:37:40;;;;;;;45.67;11.65;;;;;;;;;;5102090;28;20055;-63
2023/12/09 04:40:09;;;;;;;32.22;10.23;;;;;;;;;;5103288;28;20047;-64
2023/12/09 04:42:38;;;;;;;34.40;9.77;;;;;;;;;;5113234;28;20043;-62
2023/12/09 04:45:06;;;;;;;37.38;9.73;;;;;;;;;;5114941;28;20059;-62
2023/12/09 04:47:33;;;;;;;41.65;11.27;;;;;;;;;;5115453;28;20083;-62
2023/12/09 04:50:01;;;;;;;36.55;10.32;;;;;;;;;;5095545;28;20383;-63
2023/12/09 04:52:28;;;;;;;40.20;9.73;;;;;;;;;;5114129;27;20047;-63
2023/12/09 04:54:55;;;;;;;27.02;8.82;;;;;;;;;;5113798;28;20055;-64
2023/12/09 04:57:22;;;;;;;37.70;8.90;;;;;;;;;;5113520;28;20047;-63
2023/12/09 04:59:51;;;;;;;34.67;8.60;;;;;;;;;;5111224;28;20058;-63
2023/12/09 05:02:20;;;;;;;33.85;8.43;;;;;;;;;;5112654;28;20051;-63
2023/12/09 05:04:47;;;;;;;26.92;8.82;;;;;;;;;;5113496;28;20494;-63
2023/12/09 05:07:15;;;;;;;30.45;7.78;;;;;;;;;;5110957;28;20052;-63
2023/12/09 05:09:42;;;;;;;30.98;8.18;;;;;;;;;;5110372;28;20498;-63
2023/12/09 05:12:09;;;;;;;27.58;7.57;;;;;;;;;;5111639;28;20188;-62
2023/12/09 05:14:37;;;;;;;28.10;6.35;;;;;;;;;;5113697;28;20043;-64
2023/12/09 05:17:05;;;;;;;30.35;7.60;;;;;;;;;;5113222;28;20061;-64
2023/12/09 05:19:33;;;;;;;27.02;6.72;;;;;;;;;;5098062;28;20047;-63
2023/12/09 05:22:00;;;;;;;26.73;6.68;;;;;;;;;;5105361;28;20126;-63
2023/12/09 05:24:27;;;;;;;33.22;6.65;;;;;;;;;;5113280;28;20043;-62
2023/12/09 05:26:54;;;;;;;32.72;6.68;;;;;;;;;;5095411;28;20052;-62
2023/12/09 05:29:21;;;;;;;28.58;6.90;;;;;;;;;;5110666;28;20043;-62
2023/12/09 05:31:49;;;;;;;23.27;6.35;;;;;;;;;;5105643;28;20060;-63
2023/12/09 05:34:17;;;;;;;26.50;6.60;;;;;;;;;;5113914;28;20048;-63
2023/12/09 05:36:45;;;;;;;30.60;7.93;;;;;;;;;;5112024;28;20122;-63
2023/12/09 05:39:12;;;;;;;24.60;5.60;;;;;;;;;;5111430;28;20066;-63
2023/12/09 05:41:42;;;;;;;29.73;6.78;;;;;;;;;;5113457;28;20164;-64
2023/12/09 05:44:09;;;;;;;23.30;5.90;;;;;;;;;;5113235;28;20609;-63
2023/12/09 05:46:37;;;;;;;25.27;6.40;;;;;;;;;;5109334;28;20051;-62
2023/12/09 05:49:04;;;;;;;33.70;6.70;;;;;;;;;;5111183;28;20047;-62
2023/12/09 05:51:33;;;;;;;24.70;6.43;;;;;;;;;;5106301;28;20683;-62
2023/12/09 05:54:00;;;;;;;23.80;6.38;;;;;;;;;;5107641;28;20047;-63
2023/12/09 05:56:27;;;;;;;32.03;7.47;;;;;;;;;;5100641;28;20063;-63
2023/12/09 05:58:54;;;;;;;28.98;7.75;;;;;;;;;;5110482;28;20047;-63
2023/12/09 06:01:22;;;;;;;32.08;8.07;;;;;;;;;;5109203;28;20039;-63
2023/12/09 06:03:49;;;;;;;33.22;7.75;;;;;;;;;;5103740;28;20047;-63
2023/12/09 06:06:16;;;;;;;21.52;7.88;;;;;;;;;;5102303;28;20040;-63
2023/12/09 06:08:45;;;;;;;29.35;7.80;;;;;;;;;;5109514;28;20055;-64
2023/12/09 06:11:12;;;;;;;29.60;8.05;;;;;;;;;;5109807;28;20040;-65
2023/12/09 06:13:39;;;;;;;37.25;8.45;;;;;;;;;;5108356;28;20063;-64
2023/12/09 06:16:07;;;;;;;40.20;8.95;;;;;;;;;;5110054;28;20048;-63
2023/12/09 06:18:34;;;;;;;32.85;9.45;;;;;;;;;;5106036;28;20051;-63
2023/12/09 06:21:01;;;;;;;31.55;8.52;;;;;;;;;;5107239;28;20051;-64
2023/12/09 06:23:29;;;;;;;30.40;8.55;;;;;;;;;;5108798;28;20051;-62
2023/12/09 06:25:57;;;;;;;35.17;9.00;;;;;;;;;;5111094;28;20486;-63
2023/12/09 06:28:24;;;;;;;31.65;8.43;;;;;;;;;;5086288;28;20052;-62
2023/12/09 06:30:51;;;;;;;30.55;9.05;;;;;;;;;;5107952;28;20406;-63
2023/12/09 06:33:19;;;;;;;35.05;9.25;;;;;;;;;;5109584;28;20039;-63
2023/12/09 06:35:46;;;;;;;26.35;8.88;;;;;;;;;;5110922;28;20066;-62
2023/12/09 06:38:13;;;;;;;34.33;9.88;;;;;;;;;;5091701;28;20055;-64
2023/12/09 06:40:40;;;;;;;35.25;10.98;;;;;;;;;;5110597;28;20044;-62
2023/12/09 06:43:09;;;;;;;36.95;10.13;;;;;;;;;;5106717;28;20052;-64
2023/12/09 06:45:36;;;;;;;37.42;9.15;;;;;;;;;;5107897;28;20043;-63
2023/12/09 06:48:03;;;;;;;40.05;10.23;;;;;;;;;;5105550;28;20051;-62
2023/12/09 06:50:31;;;;;;;32.78;9.88;;;;;;;;;;5103928;28;20421;-62
2023/12/09 06:52:58;;;;;;;40.67;11.02;;;;;;;;;;5108040;28;20054;-63
2023/12/09 06:55:25;;;;;;;36.42;10.32;;;;;;;;;;5109462;28;20483;-64
2023/12/09 06:57:52;;;;;;;38.83;10.27;;;;;;;;;;5098997;28;20063;-62
2023/12/09 07:00:21;;;;;;;31.95;10.48;;;;;;;;;;5108831;28;20050;-63
2023/12/09 07:02:49;;;;;;;33.70;10.55;;;;;;;;;;5107023;28;20127;-62
2023/12/09 07:05:16;;;;;;;40.05;10.70;;;;;;;;;;5098850;28;20043;-62
2023/12/09 07:07:44;;;;;;;40.72;12.10;;;;;;;;;;5108331;28;20043;-63
2023/12/09 07:10:11;;;;;;;38.30;10.27;;;;;;;;;;5110166;28;20048;-64
2023/12/09 07:12:38;;;;;;;47.50;11.07;;;;;;;;;;5109214;28;20696;-62
2023/12/09 07:15:06;;;;;;;28.85;9.98;;;;;;;;;;5106489;28;20055;-62
2023/12/09 07:17:35;;;;;;;35.70;10.93;;;;;;;;;;5106801;28;20430;-63
2023/12/09 07:20:05;;;;;;;31.20;10.13;;;;;;;;;;5099466;28;20059;-62
2023/12/09 07:22:33;;;;;;;35.53;9.43;;;;;;;;;;5108791;28;20047;-63
2023/12/09 07:25:00;;;;;;;29.08;9.98;;;;;;;;;;5097165;28;20048;-63
2023/12/09 07:27:27;;;;;;;37.30;10.43;;;;;;;;;;5101518;28;20058;-62
2023/12/09 07:29:55;;;;;;;35.50;9.98;;;;;;;;;;5083740;28;20052;-64
2023/12/09 07:32:22;;;;;;;38.10;10.90;;;;;;;;;;5108960;28;20182;-62
2023/12/09 07:34:51;;;;;;;44.55;10.88;;;;;;;;;;5106196;28;20051;-62
2023/12/09 07:37:18;;;;;;;39.67;10.32;;;;;;;;;;5108502;28;20043;-62
2023/12/09 07:39:45;;;;;;;32.63;9.43;;;;;;;;;;5090432;28;20043;-62
2023/12/09 07:42:13;;;;;;;28.90;9.70;;;;;;;;;;5108363;28;20035;-64
2023/12/09 07:44:40;;;;;;;31.27;10.00;;;;;;;;;;5108545;28;20051;-64
2023/12/09 07:47:07;;;;;;;32.35;9.57;;;;;;;;;;5108590;28;20055;-63
2023/12/09 07:49:34;;;;;;;40.15;10.57;;;;;;;;;;5102156;28;20047;-67
2023/12/09 07:52:03;;;;;;;30.02;9.60;;;;;;;;;;5108871;28;20047;-63
2023/12/09 07:54:30;;;;;;;34.38;9.63;;;;;;;;;;5099766;28;20058;-63
2023/12/09 07:56:58;;;;;;;38.28;10.50;;;;;;;;;;5099960;28;20392;-63
2023/12/09 07:59:25;;;;;;;35.28;9.35;;;;;;;;;;5099084;28;20048;-62
2023/12/09 08:01:52;;;;;;;35.58;9.25;;;;;;;;;;5103250;28;20160;-63
2023/12/09 08:04:20;;;;;;;28.23;9.35;;;;;;;;;;5100234;28;20051;-62
2023/12/09 08:06:47;;;;;;;33.78;8.90;;;;;;;;;;5105093;28;20135;-62
2023/12/09 08:09:16;;;;;;;32.70;9.85;;;;;;;;;;5106114;28;20048;-63
2023/12/09 08:11:43;;;;;;;37.08;9.10;;;;;;;;;;5094866;28;20043;-62
2023/12/09 08:14:11;;;;;;;30.33;8.60;;;;;;;;;;5092016;28;20051;-64
2023/12/09 08:16:38;;;;;;;37.03;8.90;;;;;;;;;;5095492;28;20068;-63
2023/12/09 08:19:05;;;;;;;28.55;8.23;;;;;;;;;;5082951;28;20178;-62
2023/12/09 08:21:36;;;;;;;30.90;8.63;;;;;;;;;;5098534;28;20149;-62
2023/12/09 08:24:03;;;;;;;26.17;9.07;;;;;;;;;;5094753;28;20051;-63
2023/12/09 08:26:32;;;;;;;30.65;8.73;;;;;;;;;;5103195;28;20369;-63
2023/12/09 08:29:00;;;;;;;40.25;8.52;;;;;;;;;;5103438;28;20068;-62
2023/12/09 08:31:27;;;;;;;32.65;9.45;;;;;;;;;;5107439;28;20375;-62
2023/12/09 08:33:56;;;;;;;29.15;8.90;;;;;;;;;;5085300;28;20055;-63
2023/12/09 08:36:23;;;;;;;25.50;7.95;;;;;;;;;;5103968;28;20873;-62
2023/12/09 08:38:51;;;;;;;32.20;8.82;;;;;;;;;;5096256;28;20047;-63
2023/12/09 08:41:18;;;;;;;29.52;8.23;;;;;;;;;;5082328;28;20491;-62
2023/12/09 08:43:48;;;;;;;32.25;7.90;;;;;;;;;;5108297;28;20051;-62
2023/12/09 08:46:15;;;;;;;26.88;7.68;;;;;;;;;;5105163;28;20039;-63
2023/12/09 08:48:43;;;;;;;31.90;6.95;;;;;;;;;;5102614;28;20135;-63
2023/12/09 08:51:10;;;;;;;27.08;6.88;;;;;;;;;;5096847;28;20058;-62
2023/12/09 08:53:37;;;;;;;35.78;8.02;;;;;;;;;;5103048;28;20071;-62
2023/12/09 08:56:04;;;;;;;28.15;6.72;;;;;;;;;;5107590;28;20052;-64
2023/12/09 08:58:32;;;;;;;28.25;7.05;;;;;;;;;;5074890;28;20530;-63
2023/12/09 09:01:00;;;;;;;27.30;7.05;;;;;;;;;;5099861;28;20051;-63
2023/12/09 09:03:28;;;;;;;21.77;6.55;;;;;;;;;;5102288;28;20047;-63
2023/12/09 09:05:55;;;;;;;37.90;6.53;;;;;;;;;;5097273;28;20080;-64
2023/12/09 09:08:22;;;;;;;24.33;6.68;;;;;;;;;;5101598;28;20051;-62
2023/12/09 09:10:50;;;;;;;29.30;6.38;;;;;;;;;;5106993;28;20058;-63
2023/12/09 09:13:17;;;;;;;18.67;5.97;;;;;;;;;;5105690;28;20077;-63
2023/12/09 09:15:45;;;;;;;26.92;6.28;;;;;;;;;;5102682;28;20420;-64
2023/12/09 09:18:14;;;;;;;19.02;5.93;;;;;;;;;;5105157;28;20101;-63
2023/12/09 09:20:42;;;;;;;26.35;5.35;;;;;;;;;;5100176;28;20059;-64
2023/12/09 09:23:10;;;;;;;20.30;5.20;;;;;;;;;;5094791;28;20093;-64
2023/12/09 09:25:37;;;;;;;26.38;5.10;;;;;;;;;;5109643;28;20055;-62
2023/12/09 09:28:05;;;;;;;26.55;5.43;;;;;;;;;;5110373;28;20058;-63
2023/12/09 09:30:32;;;;;;;21.63;5.47;;;;;;;;;;5108764;28;20043;-62
2023/12/09 09:32:59;;;;;;;22.20;5.72;;;;;;;;;;5107310;28;20480;-64
2023/12/09 09:35:28;;;;;;;24.08;5.53;;;;;;;;;;5103597;28;20054;-64
2023/12/09 09:37:55;;;;;;;24.20;5.25;;;;;;;;;;5111895;28;20081;-64
2023/12/09 09:40:22;;;;;;;16.38;5.10;;;;;;;;;;5091695;28;20079;-63
2023/12/09 09:42:52;;;;;;;18.58;5.72;;;;;;;;;;5102931;28;20047;-62
2023/12/09 09:45:23;;;;;;;19.80;5.10;;;;;;;;;;5108609;28;20046;-63
2023/12/09 09:47:50;;;;;;;25.05;5.07;;;;;;;;;;5111873;28;20062;-63
2023/12/09 09:50:21;;;;;;;19.85;5.20;;;;;;;;;;5103370;28;20051;-63
2023/12/09 09:52:50;;;;;;;27.33;4.55;;;;;;;;;;5105012;28;20048;-63
2023/12/09 09:55:18;;;;;;;17.42;4.00;;;;;;;;;;5110736;28;20043;-63
2023/12/09 09:57:46;;;;;;;21.73;4.85;;;;;;;;;;5104804;28;20047;-64
2023/12/09 10:00:15;;;;;;;18.63;4.30;;;;;;;;;;5092663;28;20044;-64
2023/12/09 10:02:43;;;;;;;18.63;4.78;;;;;;;;;;5100043;28;20062;-63
2023/12/09 10:05:11;;;;;;;17.70;4.10;;;;;;;;;;5112163;28;20511;-63
2023/12/09 10:07:39;;;;;;;22.23;4.63;;;;;;;;;;5089780;28;20047;-63
2023/12/09 10:10:08;;;;;;;18.10;4.65;;;;;;;;;;5089923;28;20055;-63
2023/12/09 10:12:36;;;;;;;15.45;4.00;;;;;;;;;;5107312;28;20390;-63
2023/12/09 10:15:04;;;;;;;18.92;3.60;;;;;;;;;;5103660;28;20494;-63
2023/12/09 10:17:31;;;;;;;23.13;4.07;;;;;;;;;;5102697;28;20054;-63
2023/12/09 10:19:59;;;;;;;15.40;3.60;;;;;;;;;;5106570;28;20048;-65
2023/12/09 10:22:26;;;;;;;14.52;3.65;;;;;;;;;;5108449;28;20128;-63
2023/12/09 10:24:54;;;;;;;16.05;3.92;;;;;;;;;;5102545;28;20048;-63
2023/12/09 10:27:23;;;;;;;14.18;3.45;;;;;;;;;;5110418;28;20134;-62
2023/12/09 10:29:50;;;;;;;15.43;3.25;;;;;;;;;;5086130;28;20052;-62
2023/12/09 10:32:18;;;;;;;13.13;3.05;;;;;;;;;;5101408;28;20051;-62
2023/12/09 10:34:45;;;;;;;13.77;2.90;;;;;;;;;;5104661;28;20054;-63
2023/12/09 10:37:13;;;;;;;17.08;3.78;;;;;;;;;;5107143;28;20058;-63
2023/12/09 10:39:44;;;;;;;19.88;3.38;;;;;;;;;;5110611;28;20044;-62
2023/12/09 10:42:12;;;;;;;14.13;3.20;;;;;;;;;;5107422;28;20055;-63
2023/12/09 10:44:41;;;;;;;17.23;2.95;;;;;;;;;;5103279;28;20055;-62
2023/12/09 10:47:08;;;;;;;14.38;3.40;;;;;;;;;;5108488;28;20043;-64
2023/12/09 10:49:36;;;;;;;14.88;3.30;;;;;;;;;;5097665;28;20040;-63
2023/12/09 10:52:04;;;;;;;20.33;4.05;;;;;;;;;;5104179;28;20047;-64
2023/12/09 10:54:31;;;;;;;23.02;4.05;;;;;;;;;;5108178;28;20051;-63
2023/12/09 10:56:59;;;;;;;17.02;3.97;;;;;;;;;;5108857;28;20056;-62
2023/12/09 10:59:29;;;;;;;13.93;3.00;;;;;;;;;;5107691;28;20059;-64
2023/12/09 11:01:58;;;;;;;23.65;3.10;;;;;;;;;;5098973;28;20085;-64
2023/12/09 11:04:26;;;;;;;16.80;2.92;;;;;;;;;;5102579;28;20121;-63
2023/12/09 11:06:53;;;;;;;14.13;2.88;;;;;;;;;;5103837;28;20134;-63
2023/12/09 11:09:21;;;;;;;11.38;2.83;;;;;;;;;;5103561;28;20043;-62
2023/12/09 11:11:48;;;;;;;8.40;2.05;;;;;;;;;;5104915;28;20042;-63
2023/12/09 11:14:16;;;;;;;14.00;2.63;;;;;;;;;;5098838;28;20077;-63
2023/12/09 11:16:44;;;;;;;14.35;3.15;;;;;;;;;;5100553;28;20506;-63
2023/12/09 11:19:16;;;;;;;15.68;3.10;;;;;;;;;;5097726;28;20055;-62
2023/12/09 11:21:45;;;;;;;16.65;2.40;;;;;;;;;;5106816;28;20048;-64
2023/12/09 11:24:13;;;;;;;10.02;2.83;;;;;;;;;;5100809;28;20040;-64
2023/12/09 11:26:41;;;;;;;13.25;2.53;;;;;;;;;;5104771;28;20051;-64
2023/12/09 11:29:09;;;;;;;18.10;2.80;;;;;;;;;;5104663;28;20044;-64
2023/12/09 11:31:37;;;;;;;18.65;3.10;;;;;;;;;;5106263;28;20054;-64
2023/12/09 11:34:05;;;;;;;15.45;3.08;;;;;;;;;;5104622;28;20043;-64
2023/12/09 11:36:35;;;;;;;11.23;2.40;;;;;;;;;;5103949;28;20606;-63
2023/12/09 11:39:04;;;;;;;20.10;2.58;;;;;;;;;;5103726;28;20058;-63
2023/12/09 11:41:33;;;;;;;15.70;2.42;;;;;;;;;;5103808;28;20077;-63
2023/12/09 11:44:01;;;;;;;14.20;2.78;;;;;;;;;;5104767;28;20075;-62
2023/12/09 11:46:28;;;;;;;16.65;2.53;;;;;;;;;;5091243;28;20151;-64
2023/12/09 11:48:57;;;;;;;11.38;3.13;;;;;;;;;;5104505;28;20055;-63
2023/12/09 11:51:25;;;;;;;10.25;2.85;;;;;;;;;;5103599;28;20043;-63
2023/12/09 11:54:00;;;;;;;15.85;2.63;;;;;;;;;;5104374;28;20486;-63
2023/12/09 11:56:28;;;;;;;14.38;2.80;;;;;;;;;;5103074;28;20047;-64
2023/12/09 11:58:55;;;;;;;12.10;2.47;;;;;;;;;;5107268;28;20048;-62
2023/12/09 12:01:23;;;;;;;12.50;2.45;;;;;;;;;;5105842;28;20130;-63
2023/12/09 12:03:50;;;;;;;16.85;2.75;;;;;;;;;;5107988;28;20460;-63
2023/12/09 12:06:19;;;;;;;11.27;2.20;;;;;;;;;;5102411;28;20052;-62
2023/12/09 12:08:47;;;;;;;10.50;2.42;;;;;;;;;;5097543;28;20059;-62
2023/12/09 12:11:16;;;;;;;16.02;2.42;;;;;;;;;;5103050;28;20062;-62
2023/12/09 12:13:44;;;;;;;7.78;1.90;;;;;;;;;;5105774;28;20380;-64
2023/12/09 12:16:11;;;;;;;9.32;2.03;;;;;;;;;;5104567;28;20055;-63
2023/12/09 12:18:39;;;;;;;18.20;2.92;;;;;;;;;;5106880;28;20047;-64
2023/12/09 12:21:07;;;;;;;20.48;2.25;;;;;;;;;;5102040;28;20122;-63
2023/12/09 12:23:34;;;;;;;13.43;2.50;;;;;;;;;;5084545;28;20051;-63
2023/12/09 12:26:02;;;;;;;9.15;2.30;;;;;;;;;;5105484;28;20046;-64
2023/12/09 12:28:30;;;;;;;7.30;1.88;;;;;;;;;;5099024;28;20136;-62
2023/12/09 12:31:00;;;;;;;11.55;2.00;;;;;;;;;;5103381;28;20040;-63
2023/12/09 12:33:28;;;;;;;13.85;2.47;;;;;;;;;;5099584;28;20143;-63
2023/12/09 12:35:56;;;;;;;12.38;1.88;;;;;;;;;;5104584;28;20134;-62
2023/12/09 12:38:24;;;;;;;10.55;1.75;;;;;;;;;;5098785;28;20051;-63
2023/12/09 12:40:52;;;;;;;6.90;1.55;;;;;;;;;;5098918;28;20046;-63
2023/12/09 12:43:19;;;;;;;11.30;1.90;;;;;;;;;;5105170;28;20040;-63
2023/12/09 12:45:48;;;;;;;13.68;2.40;;;;;;;;;;5106750;28;20054;-63
2023/12/09 12:48:16;;;;;;;9.02;1.75;;;;;;;;;;5106245;28;20056;-63
2023/12/09 12:50:43;;;;;;;9.40;1.77;;;;;;;;;;5093891;28;20051;-63
2023/12/09 12:53:11;;;;;;;10.38;2.45;;;;;;;;;;5104624;28;20122;-64
2023/12/09 12:55:38;;;;;;;11.20;2.33;;;;;;;;;;5093268;28;20048;-66
2023/12/09 12:58:06;;;;;;;10.65;2.13;;;;;;;;;;5102118;28;20040;-63
2023/12/09 13:00:33;;;;;;;11.45;1.83;;;;;;;;;;5111461;28;20852;-62
2023/12/09 13:03:02;;;;;;;7.75;2.03;;;;;;;;;;5110243;28;20096;-62
2023/12/09 13:05:29;;;;;;;10.02;1.75;;;;;;;;;;5109669;28;20047;-62
2023/12/09 13:07:56;;;;;;;6.28;1.60;;;;;;;;;;5107371;28;20130;-66
2023/12/09 13:10:24;;;;;;;11.65;1.80;;;;;;;;;;5092305;28;20052;-75
2023/12/09 13:12:51;;;;;;;9.02;1.63;;;;;;;;;;5091312;28;20040;-68
2023/12/09 13:15:18;;;;;;;8.40;1.98;;;;;;;;;;5107911;28;20053;-68
2023/12/09 13:17:46;;;;;;;8.63;1.70;;;;;;;;;;5108304;28;20495;-66
2023/12/09 13:20:14;;;;;;;14.43;1.80;;;;;;;;;;5104588;28;20059;-70
2023/12/09 13:22:42;;;;;;;9.65;1.77;;;;;;;;;;5110705;28;20050;-68
2023/12/09 13:25:10;;;;;;;10.38;1.63;;;;;;;;;;5109512;28;20044;-67
2023/12/09 13:27:37;;;;;;;12.18;2.08;;;;;;;;;;5108693;28;20039;-66
2023/12/09 13:30:06;;;;;;;10.27;1.70;;;;;;;;;;5092939;28;20054;-65
2023/12/09 13:32:34;;;;;;;6.78;1.65;;;;;;;;;;5107214;28;20168;-66
2023/12/09 13:35:03;;;;;;;7.85;1.60;;;;;;;;;;5106467;28;20092;-66
2023/12/09 13:37:31;;;;;;;13.65;2.60;;;;;;;;;;5105469;28;20108;-66
2023/12/09 13:39:59;;;;;;;10.93;2.10;;;;;;;;;;5093503;28;20062;-66
2023/12/09 13:42:27;;;;;;;6.55;1.73;;;;;;;;;;5106888;28;20063;-66
2023/12/09 13:44:54;;;;;;;11.23;2.13;;;;;;;;;;5108143;28;20506;-65
2023/12/09 13:47:22;;;;;;;8.65;1.77;;;;;;;;;;5104714;28;20048;-66
2023/12/09 13:49:49;;;;;;;10.98;1.52;;;;;;;;;;5101007;28;20380;-65
2023/12/09 13:52:17;;;;;;;10.50;1.98;;;;;;;;;;5100931;28;20117;-66
2023/12/09 13:54:45;;;;;;;10.13;1.92;;;;;;;;;;5107967;28;20051;-73
2023/12/09 13:57:13;;;;;;;10.23;1.73;;;;;;;;;;5109956;28;20039;-71
2023/12/09 13:59:40;;;;;;;8.35;1.80;;;;;;;;;;5110301;28;20491;-70
2023/12/09 14:02:08;;;;;;;16.70;2.60;;;;;;;;;;5106138;28;20097;-72
2023/12/09 14:04:36;;;;;;;14.55;1.75;;;;;;;;;;5104762;28;20048;-68
2023/12/09 14:07:04;;;;;;;8.93;2.00;;;;;;;;;;5105229;28;20645;-68
2023/12/09 14:09:32;;;;;;;9.18;1.70;;;;;;;;;;5107384;28;20395;-67
2023/12/09 14:12:01;;;;;;;8.25;1.80;;;;;;;;;;5110594;28;20047;-69
2023/12/09 14:14:28;;;;;;;10.48;1.63;;;;;;;;;;5089356;28;20055;-70
2023/12/09 14:16:56;;;;;;;11.38;2.20;;;;;;;;;;5096437;28;20046;-72
2023/12/09 14:19:24;;;;;;;12.35;1.77;;;;;;;;;;5081448;28;20054;-72
2023/12/09 14:21:53;;;;;;;10.40;2.08;;;;;;;;;;5102902;28;20048;-70
2023/12/09 14:24:21;;;;;;;9.75;1.95;;;;;;;;;;5101381;28;20059;-69
2023/12/09 14:26:49;;;;;;;12.73;1.80;;;;;;;;;;5107106;28;20141;-67
2023/12/09 14:29:17;;;;;;;12.40;1.95;;;;;;;;;;5105698;28;20057;-72